• Join FlightAware (Why Join?)
  • Login
  • US Flag GB Flag 
17:48 EDT


 

Airport Tracker/Info


-or-


 

Live Flight TrackerFlight Track Log ✈ CTL13 ✈ 05-Apr-2013 ✈ KMDW - KGRR

Flight Track Log - Related Links

Times and Time Zones

All times are in EDT time to prevent confusion due to time zone crossing. See the CTL13 flight status page for this flight to view local times or setup timezone preferences in your user account.

Time Position Orientation Groundspeed Altitude Reporting Facility
EDT Latitude Longitude Course Direction KTS MPH feet Rate Location/Type
22:36 41.8047 -87.6186 82° East 127 146 4,600  Level Chicago Center
22:37 41.8231 -87.5708 63° Northeast 138 159 5,600 600 Climbing Chicago Center
22:38 41.8403 -87.5169 67° East 152 175 5,900 300 Climbing Chicago Center
22:39 41.8631 -87.4586 62° Northeast 173 199 6,300 480 Climbing Chicago Center
22:40 41.7798 -87.3867 93° East  Level FlightAware Approximate
22:40 41.8897 -87.4097 54° Northeast 166 191 7,000  Level Chicago Center
22:41 41.9189 -87.3575 53° Northeast 172 198 7,000 -60 Level Chicago Center
22:42 41.9483 -87.3031 54° Northeast 179 206 6,900  Descending Chicago Center
22:43 41.9828 -87.2389 54° Northeast 177 204 7,000  Climbing Chicago Center
22:44 42.0133 -87.1889 51° Northeast 175 201 7,000 -60 Level Chicago Center
22:45 42.0419 -87.1336 55° Northeast 179 206 6,900  Descending Chicago Center
22:46 42.0703 -87.0825 53° Northeast 175 201 7,000 60 Climbing Chicago Center
22:47 42.0947 -87.0331 56° Northeast 176 203 7,100  Climbing Chicago Center
22:48 42.1244 -86.9797 53° Northeast 177 204 7,100  Level Chicago Center
22:49 42.1575 -86.9167 55° Northeast 173 199 7,100  Level Chicago Center
22:50 42.1858 -86.8644 54° Northeast 172 198 7,100  Level Chicago Center
22:51 42.2131 -86.8106 56° Northeast 173 199 7,100  Level Chicago Center
22:52 42.2403 -86.7578 55° Northeast 172 198 7,100  Level Chicago Center
22:53 42.2667 -86.7022 57° Northeast 175 201 7,100  Level Chicago Center
22:54 42.2939 -86.6506 55° Northeast 171 197 7,100  Level Chicago Center
22:55 42.3192 -86.5997 56° Northeast 172 198 7,100  Level Chicago Center
22:56 42.3469 -86.5472 54° Northeast 172 198 7,100  Level Chicago Center
22:57 42.3811 -86.4836 54° Northeast 173 199 7,100  Level Chicago Center
22:58 42.4103 -86.4303 53° Northeast 176 203 7,100  Level Chicago Center
22:59 42.4389 -86.3781 53° Northeast 174 200 7,100  Level Chicago Center
23:00 42.4667 -86.3250 55° Northeast 173 199 7,100  Level Chicago Center
23:01 42.4947 -86.2711 55° Northeast 176 203 7,100 -60 Level Chicago Center
23:02 42.5217 -86.2181 55° Northeast 173 199 7,000 -60 Descending Chicago Center
23:03 42.5486 -86.1667 55° Northeast 171 197 7,000  Level Chicago Center
23:04 42.5758 -86.1133 55° Northeast 172 198 7,000  Level Chicago Center
23:05 42.6014 -86.0608 57° Northeast 169 194 7,000 -180 Level Chicago Center
23:06 42.6289 -86.0058 56° Northeast 173 199 6,700 -600 Descending Chicago Center
23:07 42.6547 -85.9458 60° Northeast 184 212 5,800 -900 Descending Chicago Center
23:08 42.6683 -85.8747 75° East 194 223 4,900 -1,020 Descending Chicago Center
23:09 42.7108 -85.8272 39° Northeast 196 226 3,800 -960 Descending Chicago Center
23:10 42.7644 -85.8292 358° North 193 222 3,000 -540 Descending Chicago Center
23:11 42.8094 -85.8069 20° North 180 207 2,800 -300 Descending Chicago Center
23:12 42.8439 -85.7647 42° Northeast 173 199 2,500 -180 Descending Chicago Center
23:13 42.8544 -85.7094 75° East 160 184 2,500 -60 Level Chicago Center
23:14 42.8608 -85.6583 80° East 148 170 2,400 -300 Descending Chicago Center
23:15 42.8681 -85.6106 78° East 138 159 2,000 -540 Descending Chicago Center
23:16 42.8731 -85.5644 82° East 131 151 1,400 -540 Descending Chicago Center
23:17 42.8794 -85.5219 78° East 121 139 1,000 -420 Descending Chicago Center
23:19 42.8808 -85.5228 56° Northeast  Level Estimated